False Pass Airport

About
Name: False Pass Airport
Identifier:  KFP/PAKF
Serves:  False Pass, Alaska
Owner:  Alaska DOT&PF - Central Region
Public/Private:  Public
Local Time:  25. Aug 01:48 AKDT
Description: False Pass Airport is a state owned, public use airport in False Pass, a city in the Aleutians East Borough of the U.S. state of Alaska. Scheduled airline service to Cold Bay Airport and Akutan Airport is provided by Grant Aviation
Source: Wikipedia
Location
Runways
Identifier Length (m/ft) Surface
14/32 2,150/2,150 Gravel
Flights per Day
0 flights
Distance: 59km (36mi)
Punctuality
0% (0 flights per day delayed)
Delay Average: 70 minutes
Current Weather
 13 C (Humidity: 87%)
  3kt (5km/h / 3mph) from 10°
  Overcast at 1,600 feet (487 meter)
  14km (9 mi.)
 METAR PAKF 012011Z 01003KT 9SM OVC016 13/11 A3013 RMK NOSPECI

Current Flights

Departures
Number Departure To Airline
Arrivals
Number Arrival From Airline

Current Delays

Departures
N/A
Arrivals
N/A